createdAt,value
2022-09-05T00:00:17.517Z,44.46
2022-09-05T00:01:16.525Z,44.23
2022-09-05T00:02:17.553Z,44.33
2022-09-05T00:03:16.757Z,44.38
2022-09-05T00:04:25.006Z,44.48
2022-09-05T00:05:17.507Z,44.34
2022-09-05T00:06:16.505Z,49.75
2022-09-05T00:07:41.280Z,44.05
2022-09-05T00:08:17.489Z,44.23
2022-09-05T00:09:16.505Z,44.07
2022-09-05T00:10:16.520Z,43.90
2022-09-05T00:11:40.659Z,43.89
2022-09-05T00:12:18.466Z,43.98
2022-09-05T00:13:16.495Z,44.06
2022-09-05T00:14:16.453Z,49.73
2022-09-05T00:15:18.957Z,46.57
2022-09-05T00:16:17.473Z,43.48
2022-09-05T00:17:16.388Z,43.37
2022-09-05T00:23:29.080Z,43.42
2022-09-05T00:24:20.904Z,43.70
2022-09-05T00:24:23.041Z,46.95
2022-09-05T00:24:24.864Z,43.48
2022-09-05T00:24:26.077Z,43.57
2022-09-05T00:24:32.277Z,43.51
2022-09-05T00:24:37.403Z,43.48
2022-09-05T00:25:33.234Z,45.04
2022-09-05T00:26:18.371Z,44.34
2022-09-05T00:27:16.432Z,43.98
2022-09-05T00:28:25.286Z,44.46
2022-09-05T00:29:24.441Z,46.75
2022-09-05T00:31:06.225Z,43.85
2022-09-05T00:31:55.065Z,58.26
2022-09-05T00:32:17.350Z,43.59
2022-09-05T00:33:17.876Z,43.60
2022-09-05T00:34:16.278Z,43.59
2022-09-05T00:35:16.357Z,43.98
2022-09-05T00:36:16.259Z,56.85
2022-09-05T00:37:17.058Z,44.22
2022-09-05T00:38:16.300Z,48.42
2022-09-05T00:39:16.227Z,45.82
2022-09-05T00:40:18.605Z,47.24
2022-09-05T00:41:16.208Z,44.05
2022-09-05T00:42:16.210Z,43.69
2022-09-05T00:43:16.226Z,43.74
2022-09-05T00:44:16.233Z,44.14
2022-09-05T00:45:19.829Z,43.93
2022-09-05T00:46:16.251Z,44.29
2022-09-05T00:47:16.152Z,44.70
2022-09-05T00:48:16.193Z,44.35
2022-09-05T00:49:16.167Z,44.17
2022-09-05T00:50:16.158Z,44.05
2022-09-05T00:51:16.180Z,44.59
2022-09-05T00:52:16.106Z,44.38
2022-09-05T00:53:16.147Z,47.37
2022-09-05T00:54:16.121Z,45.14
2022-09-05T00:55:16.135Z,44.17
2022-09-05T00:56:16.099Z,44.44
2022-09-05T00:57:17.926Z,54.14
2022-09-05T00:58:16.191Z,44.25
2022-09-05T00:59:16.131Z,46.21
2022-09-05T01:00:17.889Z,44.66
2022-09-05T01:01:21.131Z,44.08
2022-09-05T01:02:16.161Z,43.91
2022-09-05T01:03:16.164Z,50.00
2022-09-05T01:04:16.055Z,46.03
2022-09-05T01:05:16.109Z,59.08
2022-09-05T01:06:16.023Z,44.47
2022-09-05T01:07:16.042Z,50.27
2022-09-05T01:08:16.090Z,54.28
2022-09-05T01:09:16.995Z,44.76
2022-09-05T01:10:16.067Z,44.00
2022-09-05T01:11:17.024Z,44.01
2022-09-05T01:12:16.053Z,43.98
2022-09-05T01:13:16.011Z,44.14
2022-09-05T01:14:15.987Z,43.84
2022-09-05T01:15:16.051Z,44.39
2022-09-05T01:16:16.059Z,44.50
2022-09-05T01:17:16.009Z,47.29
2022-09-05T01:18:16.024Z,45.97
2022-09-05T01:19:16.262Z,49.41
2022-09-05T01:20:19.290Z,48.13
2022-09-05T01:21:16.013Z,44.24
2022-09-05T01:22:15.940Z,44.40
2022-09-05T01:23:16.068Z,44.08
2022-09-05T01:24:15.958Z,44.22
2022-09-05T01:25:15.924Z,44.72
2022-09-05T01:26:15.952Z,50.07
2022-09-05T01:27:15.860Z,44.29
2022-09-05T01:29:14.054Z,44.41
2022-09-05T01:29:19.729Z,49.14
2022-09-05T01:30:16.884Z,52.23
2022-09-05T01:31:15.898Z,45.44
2022-09-05T01:32:15.894Z,44.72
2022-09-05T01:33:15.821Z,46.13
2022-09-05T01:34:16.572Z,49.37
2022-09-05T01:35:16.853Z,47.17
2022-09-05T01:36:15.808Z,45.83
2022-09-05T01:37:33.014Z,54.06
2022-09-05T01:38:16.769Z,50.42
2022-09-05T01:40:14.698Z,44.34
2022-09-05T01:40:17.223Z,45.37
2022-09-05T01:41:18.426Z,49.36
2022-09-05T01:42:16.716Z,45.03
2022-09-05T01:43:15.748Z,48.73
2022-09-05T01:44:15.755Z,44.28
2022-09-05T02:03:38.511Z,54.51
2022-09-05T02:04:39.680Z,50.82
2022-09-05T02:05:48.675Z,45.59
2022-09-05T02:06:43.918Z,50.03
2022-09-05T02:07:39.660Z,46.11
2022-09-05T02:08:39.592Z,46.30
2022-09-05T02:09:39.603Z,48.78
2022-09-05T02:10:39.603Z,50.78
2022-09-05T02:11:39.606Z,45.92
2022-09-05T02:12:39.615Z,45.70
2022-09-05T02:13:39.597Z,46.06
2022-09-05T02:14:39.601Z,47.18
2022-09-05T02:16:13.742Z,46.34
2022-09-05T02:16:39.589Z,47.52
2022-09-05T02:17:51.023Z,58.69
2022-09-05T02:18:40.533Z,50.58
2022-09-05T02:19:39.534Z,52.37
2022-09-05T02:20:39.533Z,45.66
2022-09-05T02:21:55.663Z,50.44
2022-09-05T02:22:40.492Z,50.90
2022-09-05T02:23:41.898Z,53.09
2022-09-05T02:24:39.547Z,51.30
2022-09-05T02:26:01.197Z,45.95
2022-09-05T02:26:40.535Z,51.44
2022-09-05T02:28:04.310Z,51.74
2022-09-05T02:28:40.489Z,50.87
2022-09-05T02:29:39.462Z,50.29
2022-09-05T02:30:48.456Z,55.99
2022-09-05T02:31:40.551Z,55.01
2022-09-05T02:32:43.100Z,50.88
2022-09-05T02:33:39.431Z,45.67
2022-09-05T02:34:39.429Z,59.54
2022-09-05T02:35:39.428Z,51.47
2022-09-05T02:36:39.430Z,51.03
2022-09-05T02:38:19.939Z,45.51
2022-09-05T02:44:16.916Z,45.08
2022-09-05T02:45:08.639Z,56.47
2022-09-05T02:45:13.411Z,45.16
2022-09-05T02:45:14.211Z,51.82
2022-09-05T02:45:18.371Z,49.73
2022-09-05T02:45:18.590Z,51.86
2022-09-05T02:45:19.430Z,58.74
2022-09-05T02:45:40.433Z,59.39
2022-09-05T02:46:39.505Z,50.20
2022-09-05T02:47:39.320Z,51.59
2022-09-05T02:48:39.331Z,52.95
2022-09-05T02:52:21.287Z,53.61
2022-09-05T02:55:14.959Z,54.33
2022-09-05T02:57:24.772Z,51.83
2022-09-05T02:57:38.162Z,50.54
2022-09-05T02:57:38.993Z,62.08
2022-09-05T02:57:43.480Z,48.27
2022-09-05T02:57:46.832Z,61.89
2022-09-05T02:58:05.478Z,54.04
2022-09-05T02:58:05.874Z,60.00
2022-09-05T02:59:08.040Z,50.27
2022-09-05T02:59:41.228Z,51.78
2022-09-05T03:00:40.192Z,59.76
2022-09-05T03:01:39.305Z,59.09
2022-09-05T03:02:39.260Z,58.26
2022-09-05T03:03:39.422Z,55.40
2022-09-05T03:04:39.195Z,60.21
2022-09-05T03:05:39.207Z,58.47
2022-09-05T03:06:39.230Z,52.05
2022-09-05T03:07:39.216Z,60.05
2022-09-05T03:08:39.169Z,58.00
2022-09-05T03:09:39.187Z,58.36
2022-09-05T03:10:54.469Z,58.74
2022-09-05T03:11:40.155Z,53.87
2022-09-05T03:12:39.210Z,60.80
2022-09-05T03:13:50.140Z,57.57
2022-09-05T03:14:40.162Z,57.43
2022-09-05T03:15:39.169Z,65.11
2022-09-05T03:16:47.348Z,50.57
2022-09-05T03:17:40.106Z,53.04
2022-09-05T03:18:39.124Z,60.19
2022-09-05T03:19:46.114Z,61.31
2022-09-05T03:20:40.100Z,47.30
2022-09-05T03:21:39.063Z,61.03
2022-09-05T03:22:39.109Z,62.98
2022-09-05T03:23:39.062Z,60.87
2022-09-05T03:24:39.082Z,63.37
2022-09-05T03:25:39.067Z,60.81
2022-09-05T03:26:39.064Z,60.22
2022-09-05T03:27:39.052Z,60.41
2022-09-05T03:28:39.817Z,58.10
2022-09-05T03:29:39.015Z,64.29
2022-09-05T03:30:39.094Z,56.19
2022-09-05T03:31:38.995Z,66.74
2022-09-05T03:32:40.243Z,59.76
2022-09-05T03:33:38.967Z,59.78
2022-09-05T03:34:38.988Z,57.83
2022-09-05T03:35:39.955Z,64.80
2022-09-05T03:36:38.973Z,67.73
2022-09-05T03:37:38.958Z,66.32
2022-09-05T03:38:38.951Z,63.53
2022-09-05T03:39:39.040Z,62.86
2022-09-05T03:40:38.941Z,62.29
2022-09-05T03:41:40.610Z,63.58
2022-09-05T03:42:38.944Z,67.33
2022-09-05T03:43:38.900Z,62.00
2022-09-05T03:44:38.885Z,58.00
2022-09-05T03:45:38.882Z,64.21
2022-09-05T03:46:38.914Z,64.81
2022-09-05T04:08:07.559Z,67.93
2022-09-05T04:08:10.906Z,61.61
2022-09-05T04:08:17.538Z,68.34
2022-09-05T04:08:17.883Z,68.37
2022-09-05T04:08:28.964Z,68.12
2022-09-05T04:08:41.288Z,61.20
2022-09-05T04:09:49.999Z,65.52
2022-09-05T04:10:31.902Z,57.91
2022-09-05T04:11:29.802Z,67.12
2022-09-05T04:12:29.796Z,59.96
2022-09-05T04:13:29.802Z,67.69
2022-09-05T04:14:29.801Z,63.86
2022-09-05T04:15:29.768Z,66.62
2022-09-05T04:16:29.817Z,69.25
2022-09-05T04:17:30.755Z,64.73
2022-09-05T04:18:32.794Z,63.84
2022-09-05T04:19:29.748Z,65.73
2022-09-05T04:20:29.768Z,67.86
2022-09-05T04:21:29.754Z,58.45
2022-09-05T04:22:29.775Z,64.95
2022-09-05T04:23:29.752Z,71.31
2022-09-05T04:24:29.741Z,65.05
2022-09-05T04:25:29.693Z,62.15
2022-09-05T04:26:29.713Z,69.71
2022-09-05T04:27:29.682Z,70.15
2022-09-05T04:28:29.695Z,71.00
2022-09-05T04:29:29.714Z,71.70
2022-09-05T04:30:39.007Z,67.71
2022-09-05T04:31:30.735Z,64.71
2022-09-05T04:32:29.670Z,67.16
2022-09-05T04:33:36.208Z,66.99
2022-09-05T04:34:30.660Z,72.05
2022-09-05T04:35:29.644Z,69.07
2022-09-05T04:36:29.628Z,60.49
2022-09-05T04:37:29.600Z,71.69
2022-09-05T04:38:30.602Z,70.46
2022-09-05T04:39:29.710Z,68.28
2022-09-05T04:40:32.765Z,71.83
2022-09-05T04:41:39.320Z,72.52
2022-09-05T04:42:30.558Z,68.82
2022-09-05T04:43:29.551Z,69.77
2022-09-05T04:44:30.606Z,67.50
2022-09-05T04:45:29.711Z,62.43
2022-09-05T04:46:29.624Z,69.45
2022-09-05T04:47:29.601Z,70.02
2022-09-05T04:48:30.283Z,66.24
2022-09-05T04:49:29.553Z,67.90
2022-09-05T04:50:37.205Z,71.25
2022-09-05T04:51:32.373Z,69.84
2022-09-05T04:52:32.283Z,69.90
2022-09-05T04:53:29.544Z,67.94
2022-09-05T04:54:30.087Z,67.06
2022-09-05T04:55:30.551Z,63.44
2022-09-05T04:56:29.554Z,73.04
2022-09-05T04:57:29.592Z,73.16
2022-09-05T04:58:42.050Z,63.78
2022-09-05T05:01:58.948Z,66.71
2022-09-05T05:05:59.853Z,68.53
2022-09-05T05:06:04.286Z,73.75
2022-09-05T05:06:10.664Z,68.23
2022-09-05T05:06:12.234Z,67.98
2022-09-05T05:06:13.727Z,67.73
2022-09-05T05:06:14.659Z,64.41
2022-09-05T05:06:44.042Z,69.65
2022-09-05T05:07:31.548Z,71.36
2022-09-05T05:08:39.095Z,64.50
2022-09-05T05:09:30.415Z,66.87
2022-09-05T05:11:51.133Z,69.78
2022-09-05T05:18:00.473Z,73.34
2022-09-05T05:18:00.927Z,74.01
2022-09-05T05:18:03.432Z,73.26
2022-09-05T05:18:10.386Z,67.75
2022-09-05T05:18:14.074Z,67.26
2022-09-05T05:18:14.829Z,68.86
2022-09-05T05:18:16.107Z,73.71
2022-09-05T05:18:39.509Z,70.88
2022-09-05T05:19:30.363Z,72.79
2022-09-05T05:20:42.384Z,71.54
2022-09-05T05:21:30.276Z,69.57
2022-09-05T05:22:29.274Z,72.09
2022-09-05T05:23:29.238Z,66.01
2022-09-05T05:24:29.241Z,68.84
2022-09-05T05:25:29.246Z,72.21
2022-09-05T05:26:29.247Z,73.69
2022-09-05T05:27:29.215Z,71.30
2022-09-05T05:28:29.243Z,72.75
2022-09-05T05:29:29.241Z,71.64
2022-09-05T05:30:29.190Z,72.61
2022-09-05T05:31:29.215Z,72.59
2022-09-05T05:32:45.854Z,69.71
2022-09-05T05:33:30.280Z,70.64
2022-09-05T05:34:29.211Z,69.39
2022-09-05T05:35:29.192Z,68.87
2022-09-05T05:36:29.187Z,72.63
2022-09-05T05:37:29.135Z,69.14
2022-09-05T05:38:29.178Z,70.06
2022-09-05T05:39:29.206Z,70.13
2022-09-05T05:40:29.153Z,70.43
2022-09-05T05:41:29.137Z,71.71
2022-09-05T05:42:29.147Z,65.15
2022-09-05T05:43:29.110Z,69.75
2022-09-05T05:44:29.084Z,66.83
2022-09-05T05:45:29.091Z,66.49
2022-09-05T05:46:29.159Z,69.42
2022-09-05T05:47:32.150Z,70.11
2022-09-05T05:48:29.075Z,65.41
2022-09-05T05:49:29.069Z,71.03
2022-09-05T05:50:29.079Z,70.36
2022-09-05T05:51:44.087Z,69.99
2022-09-05T05:52:30.046Z,68.74
2022-09-05T05:53:42.422Z,71.47
2022-09-05T05:54:30.039Z,70.40
2022-09-05T05:55:51.695Z,64.53
2022-09-05T05:56:30.200Z,67.85
2022-09-05T05:57:29.006Z,67.34
2022-09-05T05:58:29.339Z,69.55
2022-09-05T05:59:28.967Z,67.40
2022-09-05T06:00:30.142Z,60.79
2022-09-05T06:01:38.100Z,65.07
2022-09-05T06:02:30.094Z,66.87
2022-09-05T06:03:29.042Z,69.21
2022-09-05T06:04:28.989Z,68.12
2022-09-05T06:05:28.967Z,67.77
2022-09-05T06:06:28.946Z,67.07
2022-09-05T06:07:28.979Z,69.90
2022-09-05T06:10:06.514Z,69.68
2022-09-05T06:12:53.617Z,61.70
2022-09-05T06:14:50.284Z,68.47
2022-09-05T06:14:55.863Z,70.58
2022-09-05T06:14:55.982Z,69.31
2022-09-05T06:14:56.700Z,66.38
2022-09-05T06:14:57.750Z,68.66
2022-09-05T06:15:30.500Z,68.17
2022-09-05T06:16:28.930Z,64.34
2022-09-05T06:17:28.878Z,69.02
2022-09-05T06:18:28.868Z,67.45
2022-09-05T06:19:43.605Z,59.47
2022-09-05T06:22:07.805Z,65.77
2022-09-05T06:22:08.301Z,64.08
2022-09-05T06:22:29.798Z,69.61
2022-09-05T06:23:39.311Z,65.86
2022-09-05T06:24:29.860Z,67.80
2022-09-05T06:25:28.808Z,68.78
2022-09-05T06:26:28.807Z,68.78
2022-09-05T06:27:28.754Z,61.48
2022-09-05T06:28:28.786Z,64.55
2022-09-05T06:29:34.627Z,69.29
2022-09-05T06:30:31.089Z,65.47
2022-09-05T06:31:29.883Z,65.77
2022-09-05T06:32:28.937Z,68.28
2022-09-05T06:33:28.778Z,65.42
2022-09-05T06:34:35.867Z,71.85
2022-09-05T06:35:29.718Z,67.79
2022-09-05T06:36:28.730Z,64.41
2022-09-05T06:37:28.730Z,69.22
2022-09-05T06:38:28.704Z,60.03
2022-09-05T06:39:28.778Z,70.16
2022-09-05T06:40:32.045Z,69.03
2022-09-05T06:41:29.755Z,61.90
2022-09-05T06:42:42.812Z,67.17
2022-09-05T06:43:29.702Z,72.22
2022-09-05T06:44:28.686Z,67.76
2022-09-05T06:45:28.994Z,69.85
2022-09-05T06:46:50.597Z,68.37
2022-09-05T06:47:33.960Z,67.60
2022-09-05T06:48:44.149Z,69.09
2022-09-05T06:49:37.291Z,68.01
2022-09-05T06:50:29.710Z,66.22
2022-09-05T06:51:29.638Z,70.06
2022-09-05T06:52:30.407Z,63.37
2022-09-05T06:53:28.582Z,68.86
2022-09-05T06:54:28.619Z,64.13
2022-09-05T06:55:28.587Z,67.93
2022-09-05T06:56:28.550Z,68.98
2022-09-05T06:57:28.572Z,67.56
2022-09-05T06:58:28.611Z,68.21
2022-09-05T06:59:28.583Z,67.62
2022-09-05T07:00:28.640Z,72.07
2022-09-05T07:01:55.204Z,64.44
2022-09-05T07:02:59.439Z,71.12
2022-09-05T07:03:29.771Z,65.66
2022-09-05T07:05:21.766Z,67.83
2022-09-05T07:05:38.680Z,65.03
2022-09-05T07:06:59.339Z,67.79
2022-09-05T07:07:29.508Z,70.78
2022-09-05T07:08:35.965Z,70.78
2022-09-05T07:09:29.478Z,68.07
2022-09-05T07:10:38.312Z,66.61
2022-09-05T07:11:30.486Z,66.40
2022-09-05T07:12:30.184Z,69.56
2022-09-05T07:13:29.083Z,67.94
2022-09-05T07:14:29.452Z,66.79
2022-09-05T07:15:28.434Z,65.07
2022-09-05T07:16:37.468Z,67.44
2022-09-05T07:17:29.399Z,67.70
2022-09-05T07:18:30.008Z,67.51
2022-09-05T07:19:28.420Z,66.56
2022-09-05T07:20:28.567Z,66.06
2022-09-05T07:21:28.399Z,67.72
2022-09-05T07:22:47.925Z,65.73
2022-09-05T07:23:52.740Z,64.06
2022-09-05T07:24:53.499Z,66.00
2022-09-05T07:25:31.630Z,67.56
2022-09-05T07:26:29.360Z,70.81
2022-09-05T07:27:29.350Z,65.92
2022-09-05T07:28:30.517Z,67.36
2022-09-05T07:29:28.322Z,63.37
2022-09-05T07:30:28.348Z,70.23
2022-09-05T07:31:37.922Z,69.69
2022-09-05T07:32:29.313Z,64.77
2022-09-05T07:33:28.433Z,70.74
2022-09-05T07:34:28.281Z,70.62
2022-09-05T07:35:28.274Z,69.16
2022-09-05T07:36:28.293Z,67.72
2022-09-05T07:37:28.351Z,67.71
2022-09-05T07:38:48.345Z,69.79
2022-09-05T07:39:29.648Z,68.17
2022-09-05T07:40:29.369Z,69.11
2022-09-05T07:41:28.282Z,65.01
2022-09-05T07:42:28.247Z,68.09
2022-09-05T07:43:28.352Z,65.48
2022-09-05T07:44:28.281Z,63.36
2022-09-05T07:45:28.248Z,66.35
2022-09-05T07:46:28.220Z,64.48
2022-09-05T07:47:28.225Z,67.15
2022-09-05T07:48:35.053Z,67.37
2022-09-05T07:49:31.118Z,55.90
2022-09-05T07:52:32.563Z,66.37
2022-09-05T07:55:26.246Z,67.07
2022-09-05T07:56:49.701Z,65.52
2022-09-05T07:56:58.765Z,56.12
2022-09-05T07:57:04.794Z,64.53
2022-09-05T07:57:06.157Z,65.49
2022-09-05T07:57:10.790Z,62.64
2022-09-05T07:57:31.689Z,61.13
2022-09-05T07:58:29.123Z,66.56
2022-09-05T07:59:28.173Z,64.25
2022-09-05T08:00:29.676Z,63.28
2022-09-05T08:01:28.190Z,68.26
2022-09-05T08:02:28.122Z,64.24
2022-09-05T08:03:28.073Z,67.54
2022-09-05T08:04:28.066Z,60.22
2022-09-05T08:05:35.199Z,65.32
2022-09-05T08:07:45.859Z,67.85
2022-09-05T08:07:48.854Z,64.43
2022-09-05T08:08:29.103Z,64.85
2022-09-05T08:10:09.204Z,64.13
2022-09-05T08:10:31.435Z,66.52
2022-09-05T08:11:29.027Z,59.28
2022-09-05T08:12:28.411Z,69.39
2022-09-05T08:13:28.925Z,69.70
2022-09-05T08:14:45.269Z,56.95
2022-09-05T08:16:10.379Z,66.37
2022-09-05T08:16:29.967Z,68.34
2022-09-05T08:17:30.140Z,65.75
2022-09-05T08:18:28.546Z,64.36
2022-09-05T08:19:27.979Z,68.26
2022-09-05T08:20:27.999Z,63.00
2022-09-05T08:21:28.094Z,68.55
2022-09-05T08:22:27.962Z,64.90
2022-09-05T08:23:27.911Z,66.27
2022-09-05T08:24:28.948Z,61.98
2022-09-05T08:25:37.587Z,67.18
2022-09-05T08:26:29.546Z,69.30
2022-09-05T08:27:28.546Z,65.22
2022-09-05T08:28:39.290Z,62.33
2022-09-05T08:29:28.925Z,57.69
2022-09-05T08:30:28.168Z,63.05
2022-09-05T08:31:28.956Z,64.91
2022-09-05T08:32:32.130Z,70.05
2022-09-05T08:33:28.841Z,72.19
2022-09-05T08:34:31.510Z,66.85
2022-09-05T08:35:28.880Z,62.97
2022-09-05T08:36:27.822Z,64.23
2022-09-05T08:37:27.858Z,65.40
2022-09-05T08:38:27.843Z,64.92
2022-09-05T08:39:28.902Z,63.11
2022-09-05T08:40:27.902Z,69.26
2022-09-05T08:41:50.403Z,67.26
2022-09-05T08:42:28.875Z,65.33
2022-09-05T08:46:35.412Z,65.67
2022-09-05T08:46:40.343Z,59.72
2022-09-05T08:46:40.903Z,60.15
2022-09-05T08:46:44.583Z,59.39
2022-09-05T08:47:31.923Z,68.60
2022-09-05T08:48:28.831Z,64.35
2022-09-05T08:49:37.035Z,66.00
2022-09-05T08:50:28.872Z,65.53
2022-09-05T08:51:27.799Z,68.66
2022-09-05T08:52:27.742Z,66.01
2022-09-05T08:53:45.903Z,63.68
2022-09-05T08:54:28.812Z,62.30
2022-09-05T08:55:27.725Z,64.39
2022-09-05T08:56:27.743Z,65.96
2022-09-05T08:57:27.738Z,66.24
2022-09-05T08:58:27.719Z,61.10
2022-09-05T08:59:33.045Z,66.62
2022-09-05T09:00:31.411Z,61.89
2022-09-05T09:01:27.698Z,63.00
2022-09-05T09:02:47.646Z,66.97
2022-09-05T09:03:28.789Z,66.82
2022-09-05T09:05:01.629Z,61.42
2022-09-05T09:06:12.290Z,63.47
2022-09-05T09:06:28.625Z,65.04
2022-09-05T09:07:47.971Z,58.53
2022-09-05T09:08:28.652Z,68.73
2022-09-05T09:09:27.694Z,65.64
2022-09-05T09:10:27.681Z,66.77
2022-09-05T09:11:27.641Z,66.97
2022-09-05T09:12:27.850Z,63.78
2022-09-05T09:13:28.111Z,64.06
2022-09-05T09:14:30.593Z,58.48
2022-09-05T09:15:27.607Z,67.84
2022-09-05T09:16:28.610Z,66.03
2022-09-05T09:17:29.297Z,63.63
2022-09-05T09:18:27.574Z,66.81
2022-09-05T09:19:29.030Z,66.40
2022-09-05T09:20:27.646Z,65.19
2022-09-05T09:21:27.627Z,66.51
2022-09-05T09:22:28.616Z,67.61
2022-09-05T09:23:31.915Z,65.23
2022-09-05T09:24:27.603Z,68.77
2022-09-05T09:25:30.641Z,61.27
2022-09-05T09:26:28.551Z,61.26
2022-09-05T09:27:36.427Z,49.35
2022-09-05T09:28:49.488Z,68.41
2022-09-05T09:29:28.510Z,68.00
2022-09-05T09:30:27.554Z,66.90
2022-09-05T09:31:27.585Z,60.54
2022-09-05T09:32:27.497Z,65.78
2022-09-05T09:33:27.563Z,64.43
2022-09-05T09:34:27.529Z,56.48
2022-09-05T09:35:27.509Z,63.73
2022-09-05T09:36:27.495Z,64.67
2022-09-05T09:37:35.578Z,63.98
2022-09-05T09:38:28.460Z,63.54
2022-09-05T09:39:39.204Z,64.14
2022-09-05T09:40:28.437Z,60.06
2022-09-05T09:41:27.473Z,64.27
2022-09-05T09:42:33.062Z,63.05
2022-09-05T09:43:28.444Z,66.00
2022-09-05T09:44:27.493Z,67.36
2022-09-05T09:45:28.963Z,63.90
2022-09-05T09:46:27.479Z,64.17
2022-09-05T09:47:27.422Z,63.87
2022-09-05T09:48:27.398Z,63.32
2022-09-05T09:49:27.404Z,63.74
2022-09-05T09:50:27.375Z,64.03
2022-09-05T09:51:27.422Z,64.90
2022-09-05T09:52:27.401Z,65.68
2022-09-05T09:53:27.352Z,62.99
2022-09-05T09:54:27.376Z,65.74
2022-09-05T09:55:27.337Z,63.53
2022-09-05T09:56:27.349Z,65.27
2022-09-05T09:57:27.340Z,65.96
2022-09-05T09:58:29.188Z,65.06
2022-09-05T09:59:27.335Z,68.18
2022-09-05T10:00:27.305Z,63.84
2022-09-05T10:01:36.043Z,63.28
2022-09-05T10:04:57.930Z,62.74
2022-09-05T10:10:04.376Z,67.28
2022-09-05T10:10:39.559Z,64.77
2022-09-05T10:10:44.211Z,68.42
2022-09-05T10:10:45.153Z,62.99
2022-09-05T10:10:45.890Z,66.09
2022-09-05T10:10:48.844Z,63.98
2022-09-05T10:10:57.332Z,67.15
2022-09-05T10:10:57.644Z,65.98
2022-09-05T10:12:29.309Z,65.12
2022-09-05T10:13:27.459Z,55.28
2022-09-05T10:14:47.832Z,69.18
2022-09-05T10:15:31.648Z,66.27
2022-09-05T10:16:27.317Z,66.07
2022-09-05T10:17:27.205Z,65.68
2022-09-05T10:18:27.207Z,63.96
2022-09-05T10:20:29.641Z,69.62
2022-09-05T10:21:28.167Z,64.46
2022-09-05T10:22:36.534Z,62.07
2022-09-05T10:23:29.161Z,67.07
2022-09-05T10:24:27.245Z,60.46
2022-09-05T10:25:28.052Z,63.13
2022-09-05T10:26:27.518Z,63.37
2022-09-05T10:27:27.139Z,66.48
2022-09-05T10:28:27.163Z,64.32
2022-09-05T10:29:36.532Z,63.23
2022-09-05T10:31:09.582Z,68.99
2022-09-05T10:33:02.434Z,63.99
2022-09-05T10:35:07.489Z,67.64
2022-09-05T10:35:16.769Z,66.94
2022-09-05T10:35:16.836Z,61.29
2022-09-05T10:35:28.447Z,60.74
2022-09-05T10:36:27.160Z,64.29
2022-09-05T10:37:27.077Z,63.41
2022-09-05T10:38:27.122Z,67.15
2022-09-05T10:39:27.171Z,63.15
2022-09-05T10:40:27.077Z,67.22
2022-09-05T10:41:27.054Z,65.02
2022-09-05T10:42:27.072Z,67.71
2022-09-05T10:43:27.070Z,59.21
2022-09-05T10:44:27.115Z,69.29
2022-09-05T10:45:31.362Z,65.48
2022-09-05T10:46:49.410Z,61.82
2022-09-05T10:47:29.042Z,60.46
2022-09-05T10:48:27.026Z,59.42
2022-09-05T10:49:30.493Z,66.39
2022-09-05T10:50:27.058Z,67.79
2022-09-05T10:51:28.269Z,65.58
2022-09-05T10:52:27.020Z,65.51
2022-09-05T10:53:27.042Z,66.13
2022-09-05T10:54:28.059Z,64.80
2022-09-05T10:55:26.991Z,69.25
2022-09-05T10:56:28.623Z,65.38
2022-09-05T10:57:26.918Z,67.47
2022-09-05T10:58:40.361Z,66.95
2022-09-05T11:01:19.350Z,61.62
2022-09-05T11:02:16.496Z,66.20
2022-09-05T11:02:30.041Z,65.95
2022-09-05T11:02:33.593Z,63.18
2022-09-05T11:03:29.286Z,66.30
2022-09-05T11:04:26.976Z,57.99
2022-09-05T11:05:27.493Z,63.83
2022-09-05T11:06:26.914Z,67.20
2022-09-05T11:07:29.804Z,65.64
2022-09-05T11:08:26.855Z,65.30
2022-09-05T11:09:26.833Z,53.36
2022-09-05T11:10:26.833Z,64.77
2022-09-05T11:11:34.068Z,64.55
2022-09-05T11:12:27.849Z,67.18
2022-09-05T11:13:27.018Z,67.05
2022-09-05T11:14:27.399Z,67.76
2022-09-05T11:15:26.793Z,65.63
2022-09-05T11:16:26.858Z,63.69
2022-09-05T11:17:26.780Z,67.11
2022-09-05T11:18:27.121Z,65.92
2022-09-05T11:19:27.839Z,63.92
2022-09-05T11:20:34.959Z,68.06
2022-09-05T11:21:27.806Z,65.42
2022-09-05T11:22:26.735Z,70.64
2022-09-05T11:23:26.776Z,68.37
2022-09-05T11:24:27.665Z,66.80
2022-09-05T11:25:39.681Z,61.84
2022-09-05T11:26:27.723Z,67.10
2022-09-05T11:27:26.723Z,65.69
2022-09-05T11:28:27.025Z,60.04
2022-09-05T11:29:26.705Z,67.63
2022-09-05T11:30:29.938Z,65.72
2022-09-05T11:31:34.080Z,59.44
2022-09-05T11:37:44.384Z,65.24
2022-09-05T11:39:46.814Z,66.09
2022-09-05T11:39:50.616Z,68.27
2022-09-05T11:39:51.297Z,69.51
2022-09-05T11:40:00.115Z,67.27
2022-09-05T11:40:06.455Z,64.01
2022-09-05T11:40:09.797Z,66.11
2022-09-05T11:40:10.549Z,66.49
2022-09-05T11:41:29.588Z,66.64
2022-09-05T11:42:26.607Z,62.41
2022-09-05T11:43:26.609Z,61.78
2022-09-05T11:44:27.396Z,67.56
2022-09-05T11:45:27.589Z,66.68
2022-09-05T11:46:27.833Z,67.89
2022-09-05T11:47:30.285Z,69.03
2022-09-05T11:48:27.547Z,63.29
2022-09-05T11:49:26.576Z,65.96
2022-09-05T11:50:26.527Z,67.05
2022-09-05T11:51:33.874Z,59.73
2022-09-05T11:52:27.546Z,67.55
2022-09-05T11:53:26.518Z,63.10
2022-09-05T11:54:26.550Z,63.53
2022-09-05T11:55:26.515Z,66.91
2022-09-05T11:56:28.850Z,68.77
2022-09-05T11:57:33.143Z,68.28
2022-09-05T11:58:43.492Z,63.71
2022-09-05T11:59:33.511Z,66.73
2022-09-05T12:00:31.372Z,59.94
2022-09-05T12:01:43.047Z,57.54
2022-09-05T12:02:27.552Z,66.52
2022-09-05T12:03:57.287Z,69.21
2022-09-05T12:04:27.482Z,63.46
2022-09-05T12:05:48.523Z,67.95
2022-09-05T12:06:27.462Z,67.66
2022-09-05T12:07:31.906Z,66.14
2022-09-05T12:08:28.762Z,61.66
2022-09-05T12:09:26.436Z,60.84
2022-09-05T12:10:43.396Z,63.54
2022-09-05T12:11:27.440Z,68.29
2022-09-05T12:12:38.660Z,64.03
2022-09-05T12:13:29.346Z,64.57
2022-09-05T12:14:26.424Z,62.25
2022-09-05T12:15:26.391Z,66.31
2022-09-05T12:16:26.859Z,65.11
2022-09-05T12:17:34.950Z,66.04
2022-09-05T12:18:27.644Z,67.16
2022-09-05T12:19:26.347Z,64.37
2022-09-05T12:20:26.390Z,64.09
2022-09-05T12:21:26.361Z,64.04
2022-09-05T12:22:26.328Z,64.16
2022-09-05T12:23:39.916Z,66.97
2022-09-05T12:25:23.817Z,65.19
2022-09-05T12:27:39.156Z,61.43
2022-09-05T12:27:39.386Z,65.54
2022-09-05T12:27:39.427Z,59.94
2022-09-05T12:29:28.176Z,64.08
2022-09-05T12:29:36.190Z,66.43
2022-09-05T12:30:30.078Z,64.58
2022-09-05T12:32:36.385Z,68.04
2022-09-05T12:33:32.332Z,67.50
2022-09-05T12:36:05.683Z,65.09
2022-09-05T12:36:06.882Z,68.07
2022-09-05T12:36:13.111Z,68.79
2022-09-05T12:40:53.949Z,68.02
2022-09-05T12:40:56.296Z,65.99
2022-09-05T12:40:56.746Z,69.08
2022-09-05T12:41:34.718Z,67.12
2022-09-05T12:41:35.013Z,67.88
2022-09-05T12:41:36.786Z,68.40
2022-09-05T12:42:34.479Z,68.26
2022-09-05T12:44:40.354Z,64.51
2022-09-05T12:44:42.523Z,68.21
2022-09-05T12:45:37.284Z,69.26
2022-09-05T12:46:27.174Z,68.26
2022-09-05T12:47:26.174Z,63.86
2022-09-05T12:48:26.271Z,62.69
2022-09-05T12:49:28.591Z,67.34
2022-09-05T12:50:27.123Z,66.07
2022-09-05T12:51:46.120Z,62.16
2022-09-05T12:52:27.168Z,65.97
2022-09-05T12:53:26.674Z,69.12
2022-09-05T12:54:33.565Z,66.64
2022-09-05T12:55:27.059Z,62.46
2022-09-05T12:57:46.304Z,67.63
2022-09-05T13:02:57.166Z,62.43
2022-09-05T13:02:58.598Z,67.54
2022-09-05T13:02:58.937Z,66.66
2022-09-05T13:02:59.446Z,55.64
2022-09-05T13:03:03.808Z,65.24
2022-09-05T13:03:13.668Z,69.36
2022-09-05T13:03:29.862Z,65.92
2022-09-05T13:04:31.746Z,65.62
2022-09-05T13:05:28.148Z,62.52
2022-09-05T13:06:26.238Z,63.59
2022-09-05T13:07:27.001Z,66.33
2022-09-05T13:08:26.038Z,65.88
2022-09-05T13:10:08.980Z,66.62
2022-09-05T13:14:49.122Z,63.48
2022-09-05T13:14:49.894Z,60.24
2022-09-05T13:14:52.851Z,65.30
2022-09-05T13:14:57.662Z,66.74
2022-09-05T13:14:59.082Z,65.56
2022-09-05T13:15:27.652Z,64.43
2022-09-05T13:16:25.991Z,69.97
2022-09-05T13:17:25.929Z,66.94
2022-09-05T13:18:25.964Z,65.57
2022-09-05T13:19:25.933Z,67.20
2022-09-05T13:20:25.962Z,64.20
2022-09-05T13:21:25.940Z,68.42
2022-09-05T13:22:25.887Z,62.10
2022-09-05T13:23:25.943Z,66.50
2022-09-05T13:24:26.666Z,62.45
2022-09-05T13:25:25.938Z,68.04
2022-09-05T13:26:25.894Z,64.10
2022-09-05T13:27:25.870Z,66.35
2022-09-05T13:28:25.878Z,66.83
2022-09-05T13:29:25.833Z,68.33